Time;durP1;ratioP1;P1;durP2;ratioP2;P2;SDS_P1;SDS_P2;PMS_P1;PMS_P2;Temp;Humidity;BMP_temperature;BMP_pressure;BME280_temperature;BME280_humidity;BME280_pressure;Samples;Min_cycle;Max_cycle;Signal;HPM_P1;HPM_P2
2021/09/19 00:02:10;;;;;;;;;;;;;;;23.77;58.20;100567.81;5003320;28;1966;-47
2021/09/19 00:04:36;;;;;;;;;;;;;;;23.80;58.26;100567.47;5005857;28;1729;-48
2021/09/19 00:07:03;;;;;;;;;;;;;;;23.77;58.46;100573.22;5003529;28;1752;-47
2021/09/19 00:09:30;;;;;;;;;;;;;;;23.80;58.16;100567.47;5003259;28;1108;-47
2021/09/19 00:11:56;;;;;;;;;;;;;;;23.79;58.24;100568.47;5010944;28;1693;-47
2021/09/19 00:14:23;;;;;;;;;;;;;;;23.77;58.06;100573.22;5001867;28;1931;-48
2021/09/19 00:16:51;;;;;;;;;;;;;;;23.76;58.31;100555.31;5002513;28;1676;-47
2021/09/19 00:19:19;;;;;;;;;;;;;;;23.75;58.15;100567.09;5003632;28;2046;-48
2021/09/19 00:21:45;;;;;;;;;;;;;;;23.76;58.12;100566.09;5002261;28;1075;-47
2021/09/19 00:24:12;;;;;;;;;;;;;;;23.77;58.17;100577.75;5009910;28;1840;-47
2021/09/19 00:26:39;;;;;;;;;;;;;;;23.73;58.42;100560.19;5001688;28;1972;-47
2021/09/19 00:29:05;;;;;;;;;;;;;;;23.73;58.08;100569.13;4999413;28;1595;-47
2021/09/19 00:31:32;;;;;;;;;;;;;;;23.77;58.33;100586.72;5003141;28;1458;-47
2021/09/19 00:33:59;;;;;;;;;;;;;;;23.75;57.94;100583.31;5009898;28;1977;-47
2021/09/19 00:36:26;;;;;;;;;;;;;;;23.74;58.02;100589.75;5001474;28;1811;-46
2021/09/19 00:38:52;;;;;;;;;;;;;;;23.78;58.04;100604.63;5002494;28;1571;-47
2021/09/19 00:41:19;;;;;;;;;;;;;;;23.78;58.50;100601.91;5012129;28;1778;-47
2021/09/19 00:43:45;;;;;;;;;;;;;;;23.79;58.25;100598.19;5002577;28;1696;-47
2021/09/19 00:46:12;;;;;;;;;;;;;;;23.74;58.02;100600.53;5002235;28;1076;-47
2021/09/19 00:48:38;;;;;;;;;;;;;;;23.75;58.09;100599.50;5001588;28;1862;-48
2021/09/19 00:51:06;;;;;;;;;;;;;;;23.73;58.11;100601.53;5006231;28;1852;-47
2021/09/19 00:53:33;;;;;;;;;;;;;;;23.73;58.34;100598.84;5005274;28;1914;-47
2021/09/19 00:56:03;;;;;;;;;;;;;;;23.72;57.82;100586.38;5004776;28;1677;-47
2021/09/19 00:58:31;;;;;;;;;;;;;;;23.75;58.04;100610.31;5002496;28;1617;-47
2021/09/19 01:00:58;;;;;;;;;;;;;;;23.75;57.95;100609.47;5001124;28;1640;-47
2021/09/19 01:03:26;;;;;;;;;;;;;;;23.74;58.44;100600.53;5004708;28;1470;-47
2021/09/19 01:05:53;;;;;;;;;;;;;;;23.75;58.42;100595.97;5007466;28;1662;-46
2021/09/19 01:08:21;;;;;;;;;;;;;;;23.74;58.38;100592.44;5007091;28;1557;-47
2021/09/19 01:10:47;;;;;;;;;;;;;;;23.76;57.77;100612.00;5012477;28;1008;-47
2021/09/19 01:13:14;;;;;;;;;;;;;;;23.72;58.18;100591.78;5005020;28;1992;-47
2021/09/19 01:15:41;;;;;;;;;;;;;;;23.70;58.34;100593.78;5006580;28;2248;-47
2021/09/19 01:18:08;;;;;;;;;;;;;;;23.74;58.36;100599.69;5006918;28;1735;-47
2021/09/19 01:20:35;;;;;;;;;;;;;;;23.73;58.41;100589.91;5007708;28;1808;-47
2021/09/19 01:23:03;;;;;;;;;;;;;;;23.76;57.99;100595.81;5007456;28;1972;-47
2021/09/19 01:25:31;;;;;;;;;;;;;;;23.75;58.13;100596.81;5006031;28;1995;-47
2021/09/19 01:27:57;;;;;;;;;;;;;;;23.73;58.13;100593.44;5004549;28;1785;-47
2021/09/19 01:30:24;;;;;;;;;;;;;;;23.71;58.02;100603.56;5004982;28;1616;-47
2021/09/19 01:32:51;;;;;;;;;;;;;;;23.71;57.86;100592.75;5008320;28;1910;-47
2021/09/19 01:35:17;;;;;;;;;;;;;;;23.74;58.40;100611.34;5012683;28;1546;-48
2021/09/19 01:37:44;;;;;;;;;;;;;;;23.72;57.79;100605.25;5013263;28;1942;-47
2021/09/19 01:40:11;;;;;;;;;;;;;;;23.73;58.03;100606.94;5008099;28;1096;-47
2021/09/19 01:42:38;;;;;;;;;;;;;;;23.74;58.21;100618.59;5009536;28;1996;-47
2021/09/19 01:45:06;;;;;;;;;;;;;;;23.73;57.87;100606.09;5006374;28;2153;-47
2021/09/19 01:47:32;;;;;;;;;;;;;;;23.72;58.02;100602.56;5006481;28;1848;-47
2021/09/19 01:49:59;;;;;;;;;;;;;;;23.73;57.92;100590.75;5005600;28;1394;-48
2021/09/19 01:52:25;;;;;;;;;;;;;;;23.75;58.04;100604.91;5005888;28;1609;-47
2021/09/19 01:54:52;;;;;;;;;;;;;;;23.70;57.91;100587.56;5005206;28;1902;-49
2021/09/19 01:57:20;;;;;;;;;;;;;;;23.71;58.19;100600.03;5005002;28;1000;-47
2021/09/19 01:59:50;;;;;;;;;;;;;;;23.71;57.93;100597.34;5004453;28;1567;-47
2021/09/19 02:02:16;;;;;;;;;;;;;;;23.72;58.08;100607.13;5096549;23;3626;-47
2021/09/19 02:04:43;;;;;;;;;;;;;;;23.74;58.15;100608.63;5004384;28;1890;-48
2021/09/19 02:07:09;;;;;;;;;;;;;;;23.70;58.06;100604.59;5004947;28;1763;-47
2021/09/19 02:09:36;;;;;;;;;;;;;;;23.70;58.34;100599.19;5004454;28;1099;-47
2021/09/19 02:12:02;;;;;;;;;;;;;;;23.71;57.86;100598.16;5011283;28;1975;-46
2021/09/19 02:14:29;;;;;;;;;;;;;;;23.69;58.34;100597.50;5002606;28;1974;-47
2021/09/19 02:16:57;;;;;;;;;;;;;;;23.75;58.57;100604.06;5001449;28;1651;-47
2021/09/19 02:19:23;;;;;;;;;;;;;;;23.69;58.00;100596.66;5003970;28;1047;-47
2021/09/19 02:21:50;;;;;;;;;;;;;;;23.69;58.15;100593.97;5000230;28;1850;-47
2021/09/19 02:24:16;;;;;;;;;;;;;;;23.72;58.44;100599.88;5004959;28;1680;-47
2021/09/19 02:26:42;;;;;;;;;;;;;;;23.71;57.98;100600.88;5004507;28;1593;-47
2021/09/19 02:29:09;;;;;;;;;;;;;;;23.74;57.97;100603.25;5004304;28;1536;-47
2021/09/19 02:31:35;;;;;;;;;;;;;;;23.71;58.15;100602.72;5002240;28;1477;-46
2021/09/19 02:34:03;;;;;;;;;;;;;;;23.71;58.11;100587.38;5005930;28;1906;-47
2021/09/19 02:36:30;;;;;;;;;;;;;;;23.71;57.90;100603.56;5002433;28;1695;-47
2021/09/19 02:38:56;;;;;;;;;;;;;;;23.69;57.75;100586.69;5002595;28;1961;-47
2021/09/19 02:41:25;;;;;;;;;;;;;;;23.68;58.24;100587.72;5012478;28;1734;-47
2021/09/19 02:43:52;;;;;;;;;;;;;;;23.69;58.07;100575.06;5002992;28;1667;-47
2021/09/19 02:46:18;;;;;;;;;;;;;;;23.72;57.54;100591.78;5003080;28;1080;-47
2021/09/19 02:48:44;;;;;;;;;;;;;;;23.72;57.78;100596.34;5001552;28;2359;-47
2021/09/19 02:51:12;;;;;;;;;;;;;;;23.72;57.98;100594.47;5005626;28;1911;-47
2021/09/19 02:53:39;;;;;;;;;;;;;;;23.72;58.08;100589.06;5003869;28;1993;-47
2021/09/19 02:56:05;;;;;;;;;;;;;;;23.71;58.23;100584.66;5004287;28;1718;-47
2021/09/19 02:58:34;;;;;;;;;;;;;;;23.68;58.11;100587.72;5003724;28;1622;-46
2021/09/19 03:01:01;;;;;;;;;;;;;;;23.73;58.09;100606.94;5001860;28;1670;-47
2021/09/19 03:03:27;;;;;;;;;;;;;;;23.70;57.76;100601.91;5004807;28;1472;-46
2021/09/19 03:05:54;;;;;;;;;;;;;;;23.72;57.75;100609.84;5005449;28;1727;-47
2021/09/19 03:08:21;;;;;;;;;;;;;;;23.68;58.31;100603.94;5003991;28;1562;-47
2021/09/19 03:10:48;;;;;;;;;;;;;;;23.70;57.84;100598.34;5008656;28;1090;-47
2021/09/19 03:13:14;;;;;;;;;;;;;;;23.69;57.93;100605.59;5001636;28;1976;-47
2021/09/19 03:15:41;;;;;;;;;;;;;;;23.70;57.80;100610.00;5002938;28;2238;-47
2021/09/19 03:18:08;;;;;;;;;;;;;;;23.68;57.70;100590.44;5003408;28;1486;-47
2021/09/19 03:20:34;;;;;;;;;;;;;;;23.68;57.95;100597.69;5004274;28;1484;-51
2021/09/19 03:23:01;;;;;;;;;;;;;;;23.71;58.24;100591.94;5003380;28;1561;-47
2021/09/19 03:25:29;;;;;;;;;;;;;;;23.70;57.72;100596.50;5002320;28;1695;-47
2021/09/19 03:27:55;;;;;;;;;;;;;;;23.68;58.20;100582.31;5000984;28;1739;-47
2021/09/19 03:30:22;;;;;;;;;;;;;;;23.70;58.31;100580.28;5001862;28;1678;-47
2021/09/19 03:32:48;;;;;;;;;;;;;;;23.69;57.72;100593.97;5004808;28;1059;-47
2021/09/19 03:35:15;;;;;;;;;;;;;;;23.70;58.13;100592.97;5009709;28;1973;-47
2021/09/19 03:37:41;;;;;;;;;;;;;;;23.71;58.26;100594.63;5001444;28;1824;-47
2021/09/19 03:40:08;;;;;;;;;;;;;;;23.68;58.06;100571.53;5004378;28;1080;-47
2021/09/19 03:42:36;;;;;;;;;;;;;;;23.69;58.04;100605.59;5005577;28;1737;-46
2021/09/19 03:45:03;;;;;;;;;;;;;;;23.67;58.16;100596.00;5003244;28;1441;-47
2021/09/19 03:47:30;;;;;;;;;;;;;;;23.69;57.88;100588.56;5006937;28;1047;-47
2021/09/19 03:49:56;;;;;;;;;;;;;;;23.69;57.91;100599.34;5000788;28;1740;-47
2021/09/19 03:52:22;;;;;;;;;;;;;;;23.69;58.31;100585.84;5000871;28;1638;-47
2021/09/19 03:54:49;;;;;;;;;;;;;;;23.69;58.35;100588.56;5002179;28;1907;-47
2021/09/19 03:57:15;;;;;;;;;;;;;;;23.67;58.20;100586.03;5002470;28;1797;-46
2021/09/19 03:59:43;;;;;;;;;;;;;;;23.64;58.34;100586.38;5002692;28;1362;-47
2021/09/19 04:02:10;;;;;;;;;;;;;;;23.67;57.96;100593.28;5002324;28;1946;-46
2021/09/19 04:04:36;;;;;;;;;;;;;;;23.67;58.23;100587.88;5004040;28;1688;-47
2021/09/19 04:07:03;;;;;;;;;;;;;;;23.68;58.12;100600.38;5002964;28;1596;-47
2021/09/19 04:09:29;;;;;;;;;;;;;;;23.64;57.74;100578.28;5002081;28;1086;-48
2021/09/19 04:11:56;;;;;;;;;;;;;;;23.68;57.86;100585.03;5008874;28;1450;-47
2021/09/19 04:14:23;;;;;;;;;;;;;;;23.67;58.06;100596.00;5000493;28;1902;-47
2021/09/19 04:16:51;;;;;;;;;;;;;;;23.70;58.11;100612.69;5001309;28;1649;-47
2021/09/19 04:19:17;;;;;;;;;;;;;;;23.69;58.15;100612.84;5002669;28;1968;-47
2021/09/19 04:21:44;;;;;;;;;;;;;;;23.67;57.71;100613.03;5001145;28;1088;-47
2021/09/19 04:24:10;;;;;;;;;;;;;;;23.67;57.66;100622.97;5000629;28;1606;-47
2021/09/19 04:26:37;;;;;;;;;;;;;;;23.63;58.12;100609.84;5000663;28;1857;-47
2021/09/19 04:29:03;;;;;;;;;;;;;;;23.69;57.59;100621.78;5002103;28;1465;-46
2021/09/19 04:31:30;;;;;;;;;;;;;;;23.67;58.16;100621.13;5002467;28;1615;-47
2021/09/19 04:33:58;;;;;;;;;;;;;;;23.67;57.72;100626.53;5008694;28;1910;-47
2021/09/19 04:36:24;;;;;;;;;;;;;;;23.69;58.19;100629.06;5000428;28;1642;-47
2021/09/19 04:38:51;;;;;;;;;;;;;;;23.65;57.82;100633.09;5000935;28;1658;-48
2021/09/19 04:41:17;;;;;;;;;;;;;;;23.67;57.69;100625.69;5009799;28;1889;-47
2021/09/19 04:43:44;;;;;;;;;;;;;;;23.69;57.77;100632.59;5000839;28;1658;-47
2021/09/19 04:46:10;;;;;;;;;;;;;;;23.63;58.26;100617.94;5001094;28;967;-47
2021/09/19 04:48:37;;;;;;;;;;;;;;;23.65;58.02;100628.53;5000265;28;1623;-47
2021/09/19 04:51:04;;;;;;;;;;;;;;;23.67;58.07;100641.88;5004997;28;2257;-46
2021/09/19 04:53:31;;;;;;;;;;;;;;;23.66;58.12;100632.13;5002154;28;1781;-46
2021/09/19 04:55:57;;;;;;;;;;;;;;;23.65;58.25;100625.00;5001937;28;1906;-47
2021/09/19 04:58:24;;;;;;;;;;;;;;;23.65;58.06;100647.44;5001248;28;1437;-47
2021/09/19 05:00:50;;;;;;;;;;;;;;;23.67;58.06;100645.41;5003617;28;1074;-47
2021/09/19 05:03:17;;;;;;;;;;;;;;;23.63;57.89;100633.28;4999840;28;2075;-47
2021/09/19 05:05:43;;;;;;;;;;;;;;;23.65;57.64;100630.41;5004956;28;1742;-47
2021/09/19 05:08:11;;;;;;;;;;;;;;;23.66;58.26;100632.94;5001978;28;1620;-46
2021/09/19 05:10:38;;;;;;;;;;;;;;;23.66;57.87;100643.75;5006152;28;1016;-46
2021/09/19 05:13:04;;;;;;;;;;;;;;;23.67;58.02;100639.19;5001090;28;1949;-46
2021/09/19 05:15:31;;;;;;;;;;;;;;;23.65;58.00;100628.53;5001877;28;1942;-47
2021/09/19 05:17:57;;;;;;;;;;;;;;;23.66;58.26;100641.03;5001851;28;1825;-46
2021/09/19 05:20:24;;;;;;;;;;;;;;;23.65;57.74;100644.75;5002437;28;1570;-47
2021/09/19 05:22:51;;;;;;;;;;;;;;;23.69;57.96;100642.56;5001374;28;1519;-47
2021/09/19 05:25:19;;;;;;;;;;;;;;;23.67;58.08;100642.72;4999870;28;1788;-46
2021/09/19 05:27:45;;;;;;;;;;;;;;;23.65;58.22;100625.84;4999752;28;2064;-48
2021/09/19 05:30:12;;;;;;;;;;;;;;;23.69;57.93;100648.78;5001441;28;1464;-47
2021/09/19 05:32:38;;;;;;;;;;;;;;;23.71;58.09;100633.25;5001625;28;1100;-47
2021/09/19 05:35:05;;;;;;;;;;;;;;;23.71;58.00;100625.16;5008213;28;1906;-47
2021/09/19 05:37:32;;;;;;;;;;;;;;;23.75;57.99;100639.16;4999926;28;1728;-46
2021/09/19 05:39:59;;;;;;;;;;;;;;;23.78;57.88;100641.56;5003567;28;1047;-47
2021/09/19 05:42:26;;;;;;;;;;;;;;;23.78;57.42;100637.00;5006141;28;2133;-48
2021/09/19 05:44:53;;;;;;;;;;;;;;;23.85;57.79;100634.47;5001680;28;1491;-47
2021/09/19 05:47:19;;;;;;;;;;;;;;;23.84;57.52;100638.19;5004279;28;1214;-47
2021/09/19 05:49:46;;;;;;;;;;;;;;;23.82;57.30;100629.44;4999974;28;2017;-47
2021/09/19 05:52:12;;;;;;;;;;;;;;;23.86;57.14;100638.88;5002301;28;1653;-46
2021/09/19 05:54:39;;;;;;;;;;;;;;;23.86;57.11;100627.22;5004852;28;1906;-47
2021/09/19 05:57:05;;;;;;;;;;;;;;;23.89;57.06;100637.66;5004828;28;1591;-47
2021/09/19 05:59:33;;;;;;;;;;;;;;;23.86;57.72;100624.53;5005092;28;1675;-47
2021/09/19 06:01:59;;;;;;;;;;;;;;;23.88;56.89;100639.53;5005095;28;1885;-47
2021/09/19 06:04:26;;;;;;;;;;;;;;;23.86;56.98;100627.22;5006502;28;1722;-47
2021/09/19 06:06:52;;;;;;;;;;;;;;;23.88;57.41;100619.81;5004306;28;1645;-48
2021/09/19 06:09:19;;;;;;;;;;;;;;;23.89;57.18;100629.56;5004381;28;996;-46
2021/09/19 06:11:45;;;;;;;;;;;;;;;23.91;57.03;100633.78;5012734;28;1987;-47
2021/09/19 06:14:12;;;;;;;;;;;;;;;23.89;57.46;100626.88;5003844;28;1902;-47
2021/09/19 06:16:40;;;;;;;;;;;;;;;23.89;57.57;100632.28;5005477;28;1734;-47
2021/09/19 06:19:06;;;;;;;;;;;;;;;23.88;57.18;100619.81;5000237;28;1073;-47
2021/09/19 06:21:33;;;;;;;;;;;;;;;23.90;57.54;100629.41;5003536;28;1507;-47
2021/09/19 06:23:59;;;;;;;;;;;;;;;23.89;57.12;100626.88;5003652;28;2023;-46
2021/09/19 06:26:26;;;;;;;;;;;;;;;23.91;57.11;100624.84;5001155;28;1664;-46
2021/09/19 06:28:52;;;;;;;;;;;;;;;23.92;57.10;100621.97;5005186;28;1671;-48
2021/09/19 06:31:20;;;;;;;;;;;;;;;23.88;57.44;100628.72;5005201;28;1518;-47
2021/09/19 06:33:48;;;;;;;;;;;;;;;23.88;57.74;100619.81;5009927;28;1076;-47
2021/09/19 06:36:14;;;;;;;;;;;;;;;23.93;57.21;100644.41;5004033;28;1983;-47
2021/09/19 06:38:41;;;;;;;;;;;;;;;23.92;57.34;100642.75;5005109;28;2003;-47
2021/09/19 06:41:07;;;;;;;;;;;;;;;23.90;57.57;100628.56;5011748;28;1801;-48
2021/09/19 06:43:34;;;;;;;;;;;;;;;23.93;57.26;100639.84;5004099;28;1055;-47
2021/09/19 06:46:00;;;;;;;;;;;;;;;23.90;57.25;100640.22;5002644;28;1865;-47
2021/09/19 06:48:27;;;;;;;;;;;;;;;23.90;57.16;100639.38;5003504;28;2085;-47
2021/09/19 06:50:59;;;;;;;;;;;;;;;23.92;57.50;100637.34;5013062;28;1471;-47
2021/09/19 06:53:28;;;;;;;;;;;;;;;23.92;57.13;100640.03;5007482;28;1489;-47
2021/09/19 06:55:54;;;;;;;;;;;;;;;23.93;57.21;100652.53;5006976;28;1910;-46
2021/09/19 06:58:24;;;;;;;;;;;;;;;23.94;57.15;100648.81;4998371;28;1571;-47
2021/09/19 07:00:51;;;;;;;;;;;;;;;23.90;57.39;100640.22;5012707;28;1638;-47
2021/09/19 07:06:03;;;;;;;;;;;;;;;23.94;57.49;100643.41;5007884;28;2288;-47
2021/09/19 07:08:31;;;;;;;;;;;;;;;23.92;57.48;100643.59;5008274;28;1673;-46
2021/09/19 07:10:58;;;;;;;;;;;;;;;23.91;57.37;100647.28;5011129;28;1012;-47
2021/09/19 07:13:28;;;;;;;;;;;;;;;23.91;57.14;100652.69;5010654;28;1527;-47
2021/09/19 07:16:01;;;;;;;;;;;;;;;23.95;57.02;100664.81;5003909;28;1977;-46
2021/09/19 07:18:31;;;;;;;;;;;;;;;23.94;57.42;100667.72;5005369;28;1814;-46
2021/09/19 07:21:09;;;;;;;;;;;;;;;23.93;57.46;100652.53;5004488;28;1354;-46
2021/09/19 07:23:49;;;;;;;;;;;;;;;23.93;57.47;100653.34;5005721;28;1763;-47
2021/09/19 07:26:16;;;;;;;;;;;;;;;23.91;57.77;100641.88;5004924;28;1897;-46
2021/09/19 07:28:43;;;;;;;;;;;;;;;23.94;57.27;100654.22;5003323;28;1688;-47
2021/09/19 07:31:10;;;;;;;;;;;;;;;23.95;57.60;100645.09;5004717;28;1707;-47
2021/09/19 07:33:36;;;;;;;;;;;;;;;23.97;57.32;100672.78;5007995;28;1151;-46
2021/09/19 07:36:04;;;;;;;;;;;;;;;23.94;57.48;100659.63;5004591;28;1981;-47
2021/09/19 07:38:32;;;;;;;;;;;;;;;23.92;57.39;100657.09;5004762;28;1595;-47
2021/09/19 07:40:59;;;;;;;;;;;;;;;23.94;57.42;100659.63;5011171;28;1344;-46
2021/09/19 07:43:26;;;;;;;;;;;;;;;23.95;57.35;100667.53;5002645;28;1983;-47
2021/09/19 07:45:52;;;;;;;;;;;;;;;23.94;57.01;100657.75;5002623;28;1938;-47
2021/09/19 07:48:21;;;;;;;;;;;;;;;23.97;57.04;100667.38;5000200;28;1837;-47
2021/09/19 07:50:47;;;;;;;;;;;;;;;23.95;57.55;100653.19;5008221;28;1907;-46
2021/09/19 07:53:15;;;;;;;;;;;;;;;23.95;57.74;100661.28;5003989;28;2321;-47
2021/09/19 07:55:42;;;;;;;;;;;;;;;23.98;56.91;100669.06;5001915;28;1910;-46
2021/09/19 07:58:09;;;;;;;;;;;;;;;23.95;57.31;100654.03;5002324;28;1908;-46
2021/09/19 08:00:35;;;;;;;;;;;;;;;23.96;57.05;100660.28;5003111;28;1532;-47
2021/09/19 08:03:02;;;;;;;;;;;;;;;23.97;57.36;100652.03;5004071;28;1944;-46
2021/09/19 08:05:28;;;;;;;;;;;;;;;23.94;57.54;100648.81;5009095;28;1580;-46
2021/09/19 08:07:55;;;;;;;;;;;;;;;23.97;57.44;100659.25;5003823;28;1547;-47
2021/09/19 08:10:22;;;;;;;;;;;;;;;23.96;57.19;100641.38;5005590;28;1077;-46
2021/09/19 08:12:49;;;;;;;;;;;;;;;23.97;57.06;100643.06;5005057;28;1844;-46
2021/09/19 08:15:16;;;;;;;;;;;;;;;23.99;57.21;100649.13;5003388;28;1902;-46
2021/09/19 08:17:43;;;;;;;;;;;;;;;23.99;57.08;100641.03;5003906;28;1803;-47
2021/09/19 08:20:11;;;;;;;;;;;;;;;23.97;57.24;100634.97;5003646;28;1478;-47
2021/09/19 08:22:38;;;;;;;;;;;;;;;23.95;57.26;100624.31;5002014;28;1680;-47
2021/09/19 08:25:06;;;;;;;;;;;;;;;23.99;57.81;100638.31;5001946;28;1881;-48
2021/09/19 08:27:36;;;;;;;;;;;;;;;23.98;57.57;100631.25;5003240;28;1994;-47
2021/09/19 08:30:03;;;;;;;;;;;;;;;24.00;57.84;100634.63;5003029;28;1602;-47
2021/09/19 08:32:29;;;;;;;;;;;;;;;23.99;57.35;100635.63;5003070;28;1093;-47
2021/09/19 08:34:56;;;;;;;;;;;;;;;23.99;57.31;100633.78;5010614;28;1995;-47
2021/09/19 08:37:23;;;;;;;;;;;;;;;23.99;57.56;100612.19;5002185;28;1730;-46
2021/09/19 08:39:49;;;;;;;;;;;;;;;23.97;57.67;100610.66;5009738;28;1004;-47
2021/09/19 08:42:17;;;;;;;;;;;;;;;23.97;57.47;100608.81;5009124;28;2127;-46
2021/09/19 08:44:44;;;;;;;;;;;;;;;24.02;57.56;100608.28;5002667;28;1418;-47
2021/09/19 08:47:12;;;;;;;;;;;;;;;23.98;57.58;100593.44;5001745;28;1932;-47
2021/09/19 08:49:38;;;;;;;;;;;;;;;24.02;58.07;100605.59;5003869;28;1705;-47
2021/09/19 08:52:05;;;;;;;;;;;;;;;24.01;57.53;100603.88;5002587;28;1031;-46
2021/09/19 08:54:31;;;;;;;;;;;;;;;23.99;57.84;100592.41;5001544;28;1657;-47
2021/09/19 08:56:58;;;;;;;;;;;;;;;24.01;57.47;100596.66;5001548;28;1910;-46
2021/09/19 08:59:25;;;;;;;;;;;;;;;24.02;57.80;100589.38;5003672;28;1737;-46
2021/09/19 09:01:59;;;;;;;;;;;;;;;24.04;57.01;100603.56;5003503;28;1774;-47
2021/09/19 09:04:26;;;;;;;;;;;;;;;24.03;57.38;100612.66;5009845;28;1989;-47
2021/09/19 09:06:53;;;;;;;;;;;;;;;24.02;57.56;100606.41;5002623;28;1096;-47
2021/09/19 09:09:20;;;;;;;;;;;;;;;24.03;57.58;100612.66;5002512;28;1082;-46
2021/09/19 09:11:59;;;;;;;;;;;;;;;24.02;57.80;100597.47;5009924;28;1814;-46
2021/09/19 09:14:26;;;;;;;;;;;;;;;24.07;57.08;100602.34;5001485;28;1464;-47
2021/09/19 09:16:52;;;;;;;;;;;;;;;24.01;57.71;100584.97;5001974;28;1976;-47
2021/09/19 09:19:20;;;;;;;;;;;;;;;24.07;57.38;100608.59;5003410;28;1692;-47
2021/09/19 09:21:47;;;;;;;;;;;;;;;24.02;57.46;100589.38;5001468;28;1181;-46
2021/09/19 09:24:16;;;;;;;;;;;;;;;24.01;57.69;100579.56;5001578;28;1691;-47
2021/09/19 09:26:43;;;;;;;;;;;;;;;24.04;57.18;100583.81;5003773;28;2335;-47
2021/09/19 09:29:11;;;;;;;;;;;;;;;24.07;57.09;100592.38;5006487;28;1657;-46
2021/09/19 09:31:38;;;;;;;;;;;;;;;24.06;57.20;100581.78;5006618;28;1926;-46
2021/09/19 09:34:06;;;;;;;;;;;;;;;24.04;57.53;100586.50;5014324;28;1071;-46
2021/09/19 09:36:41;;;;;;;;;;;;;;;24.06;57.26;100579.91;5004423;28;1898;-47
2021/09/19 09:39:23;;;;;;;;;;;;;;;24.07;57.35;100581.56;5004984;28;1801;-47
2021/09/19 09:41:49;;;;;;;;;;;;;;;24.08;57.25;100585.16;5010595;28;1935;-47
2021/09/19 09:44:30;;;;;;;;;;;;;;;24.10;57.18;100583.13;5004559;28;1590;-47
2021/09/19 09:46:57;;;;;;;;;;;;;;;24.09;56.96;100578.72;5015013;28;1075;-46
2021/09/19 09:49:24;;;;;;;;;;;;;;;24.11;57.23;100582.91;5006509;28;1669;-46
2021/09/19 09:51:52;;;;;;;;;;;;;;;24.11;57.22;100580.22;5006729;28;1598;-46
2021/09/19 09:54:18;;;;;;;;;;;;;;;24.11;57.27;100573.97;5006396;28;1387;-46
2021/09/19 09:56:47;;;;;;;;;;;;;;;24.12;57.91;100579.22;5006611;28;2345;-47
2021/09/19 09:59:15;;;;;;;;;;;;;;;24.13;57.14;100570.09;5006227;28;1810;-47
2021/09/19 10:01:41;;;;;;;;;;;;;;;24.11;58.04;100566.72;5004298;28;1743;-47
2021/09/19 10:04:08;;;;;;;;;;;;;;;24.16;57.11;100569.75;5007708;28;1066;-46
2021/09/19 10:06:35;;;;;;;;;;;;;;;24.12;57.56;100563.00;5004600;28;1987;-46
2021/09/19 10:09:03;;;;;;;;;;;;;;;24.16;57.70;100574.31;5014853;28;1702;-47
2021/09/19 10:11:29;;;;;;;;;;;;;;;24.14;57.65;100560.97;5005097;28;1663;-47
2021/09/19 10:13:56;;;;;;;;;;;;;;;24.10;57.94;100554.22;5005165;28;1111;-46
2021/09/19 10:16:23;;;;;;;;;;;;;;;24.12;57.88;100554.06;5003668;28;1910;-46
2021/09/19 10:18:50;;;;;;;;;;;;;;;24.12;57.66;100551.38;5004343;28;2003;-47
2021/09/19 10:21:18;;;;;;;;;;;;;;;24.10;57.76;100566.91;5005710;28;1525;-46
2021/09/19 10:23:45;;;;;;;;;;;;;;;24.12;57.43;100552.19;5006203;28;1663;-46
2021/09/19 10:26:21;;;;;;;;;;;;;;;24.10;57.79;100543.41;5005842;28;1654;-47
2021/09/19 10:28:48;;;;;;;;;;;;;;;24.15;57.61;100549.16;5005858;28;1986;-46
2021/09/19 10:31:22;;;;;;;;;;;;;;;24.11;57.69;100545.09;5005910;28;1685;-46
2021/09/19 10:33:50;;;;;;;;;;;;;;;24.11;57.80;100555.06;5009177;28;1084;-46
2021/09/19 10:36:29;;;;;;;;;;;;;;;24.10;57.80;100542.59;5004402;28;1987;-46
2021/09/19 10:39:11;;;;;;;;;;;;;;;24.13;57.46;100548.50;5000370;28;1850;-46
2021/09/19 10:41:59;;;;;;;;;;;;;;;24.13;57.47;100542.22;4997292;28;1569;-47
2021/09/19 10:44:33;;;;;;;;;;;;;;;24.10;57.78;100534.47;5003332;28;1589;-47
2021/09/19 10:47:03;;;;;;;;;;;;;;;24.12;58.04;100524.34;5003224;28;1554;-47
2021/09/19 10:49:33;;;;;;;;;;;;;;;24.11;57.60;100534.28;5007103;28;1007;-46
2021/09/19 10:52:06;;;;;;;;;;;;;;;24.11;57.60;100511.84;5004482;28;1008;-46
2021/09/19 10:54:47;;;;;;;;;;;;;;;24.12;57.96;100511.66;5003202;28;1987;-47
2021/09/19 10:57:18;;;;;;;;;;;;;;;24.11;57.61;100515.38;5003317;28;1898;-46
2021/09/19 11:00:03;;;;;;;;;;;;;;;24.12;57.53;100511.66;5003145;28;2068;-47
2021/09/19 11:02:30;;;;;;;;;;;;;;;24.11;57.73;100501.88;5002664;28;1756;-47
2021/09/19 11:05:11;;;;;;;;;;;;;;;24.10;57.56;100500.19;5012017;28;2107;-47
2021/09/19 11:07:38;;;;;;;;;;;;;;;24.11;58.07;100480.25;5002387;28;1803;-47
2021/09/19 11:10:04;;;;;;;;;;;;;;;24.11;57.67;100482.13;5006818;28;1078;-46
2021/09/19 11:12:42;;;;;;;;;;;;;;;24.11;57.83;100474.84;5008845;28;1834;-46
2021/09/19 11:15:10;;;;;;;;;;;;;;;24.09;57.55;100482.28;5004827;28;1382;-47
2021/09/19 11:17:43;;;;;;;;;;;;;;;24.08;58.05;100488.72;5004723;28;1977;-47
2021/09/19 11:20:24;;;;;;;;;;;;;;;24.11;57.56;100482.13;5005254;28;1506;-47
2021/09/19 11:22:52;;;;;;;;;;;;;;;24.10;57.58;100483.16;5004500;28;1446;-46
2021/09/19 11:25:19;;;;;;;;;;;;;;;24.11;58.01;100479.41;5002928;28;2047;-46
2021/09/19 11:27:49;;;;;;;;;;;;;;;24.10;58.27;100483.16;5002429;28;1450;-47
2021/09/19 11:30:17;;;;;;;;;;;;;;;24.11;57.69;100474.03;5003676;28;1349;-46
2021/09/19 11:32:44;;;;;;;;;;;;;;;24.11;57.94;100474.03;5005463;28;1055;-47
2021/09/19 11:35:12;;;;;;;;;;;;;;;24.08;58.02;100475.22;5011469;28;1649;-47
2021/09/19 11:37:38;;;;;;;;;;;;;;;24.13;58.07;100474.69;5002729;28;1981;-46
2021/09/19 11:40:09;;;;;;;;;;;;;;;24.11;58.03;100468.63;5005829;28;1107;-47
2021/09/19 11:42:36;;;;;;;;;;;;;;;24.08;57.71;100460.88;5007503;28;1820;-47
2021/09/19 11:45:07;;;;;;;;;;;;;;;24.11;57.57;100469.44;5004450;28;1542;-47
2021/09/19 11:47:34;;;;;;;;;;;;;;;24.10;57.81;100446.16;5007796;28;1543;-47
2021/09/19 11:50:01;;;;;;;;;;;;;;;24.08;57.75;100464.41;5003649;28;1006;-46
2021/09/19 11:52:28;;;;;;;;;;;;;;;24.07;57.43;100465.41;5002468;28;1873;-47
2021/09/19 11:54:55;;;;;;;;;;;;;;;24.09;57.91;100449.88;5002316;28;1819;-47
2021/09/19 11:57:21;;;;;;;;;;;;;;;24.09;58.02;100449.88;5000097;28;1980;-47
2021/09/19 11:59:48;;;;;;;;;;;;;;;24.13;57.81;100450.38;5004056;28;1470;-46
2021/09/19 12:02:17;;;;;;;;;;;;;;;24.14;57.74;100443.97;5003773;28;1526;-47
2021/09/19 12:04:44;;;;;;;;;;;;;;;24.11;57.86;100447.84;5005820;28;1487;-47
2021/09/19 12:07:11;;;;;;;;;;;;;;;24.09;58.19;100432.84;4995436;28;1418;-47
2021/09/19 12:09:42;;;;;;;;;;;;;;;24.08;57.92;100437.41;5003834;28;1120;-46
2021/09/19 12:12:12;;;;;;;;;;;;;;;24.07;57.76;100443.81;5010422;28;1930;-49
2021/09/19 12:14:43;;;;;;;;;;;;;;;24.09;58.50;100433.66;5002686;28;1935;-49
2021/09/19 12:17:11;;;;;;;;;;;;;;;24.07;57.69;100424.91;5001870;28;1977;-46
2021/09/19 12:19:40;;;;;;;;;;;;;;;24.11;57.94;100434.34;5002438;28;1746;-47
2021/09/19 12:22:07;;;;;;;;;;;;;;;24.08;58.14;100413.09;5003491;28;1479;-46
2021/09/19 12:24:35;;;;;;;;;;;;;;;24.09;58.07;100417.47;5002340;28;1519;-49
2021/09/19 12:27:11;;;;;;;;;;;;;;;24.12;57.98;100414.41;5002429;28;1088;-47
2021/09/19 12:29:38;;;;;;;;;;;;;;;24.12;57.76;100414.41;5001887;28;1808;-47
2021/09/19 12:32:04;;;;;;;;;;;;;;;24.12;57.88;100406.31;5001945;28;1912;-46
2021/09/19 12:34:31;;;;;;;;;;;;;;;24.12;57.78;100406.31;5012337;28;1640;-47
2021/09/19 12:37:00;;;;;;;;;;;;;;;24.12;58.07;100406.31;5002646;28;1906;-47
2021/09/19 12:39:27;;;;;;;;;;;;;;;24.11;57.79;100407.31;5002043;28;1131;-46
2021/09/19 12:41:55;;;;;;;;;;;;;;;24.10;58.30;100407.53;5010447;28;1768;-47
2021/09/19 12:44:23;;;;;;;;;;;;;;;24.09;58.09;100395.00;5001494;28;1948;-47
2021/09/19 12:46:50;;;;;;;;;;;;;;;24.11;58.00;100414.59;5002770;28;1980;-47
2021/09/19 12:49:21;;;;;;;;;;;;;;;24.07;58.15;100392.50;5004125;28;1088;-46
2021/09/19 12:52:09;;;;;;;;;;;;;;;24.10;58.06;100392.16;5001797;28;1651;-47
2021/09/19 12:54:36;;;;;;;;;;;;;;;24.12;57.96;100384.69;5001531;28;1912;-46